Time;durP1;ratioP1;P1;durP2;ratioP2;P2;SDS_P1;SDS_P2;PMS_P1;PMS_P2;Temp;Humidity;BMP_temperature;BMP_pressure;BME280_temperature;BME280_humidity;BME280_pressure;Samples;Min_cycle;Max_cycle;Signal;HPM_P1;HPM_P2
2022/06/19 00:00:08;;;;;;;14.98;2.72;;;14.70;99.90;;;;;;5083282;28;20109;-68
2022/06/19 00:02:36;;;;;;;14.35;2.35;;;14.70;99.90;;;;;;5083487;28;20432;-67
2022/06/19 00:05:02;;;;;;;13.32;2.45;;;14.70;99.90;;;;;;5083488;28;20044;-67
2022/06/19 00:07:28;;;;;;;16.70;2.10;;;14.60;99.90;;;;;;5082212;28;20040;-68
2022/06/19 00:09:54;;;;;;;19.60;2.70;;;14.60;99.90;;;;;;5067230;28;20593;-68
2022/06/19 00:12:20;;;;;;;16.83;2.42;;;14.60;99.90;;;;;;5066331;28;20128;-68
2022/06/19 00:14:46;;;;;;;17.95;2.38;;;14.60;99.90;;;;;;5069544;28;20048;-68
2022/06/19 00:17:14;;;;;;;16.30;2.60;;;14.50;99.90;;;;;;5065615;28;20049;-67
2022/06/19 00:19:39;;;;;;;18.05;2.63;;;14.50;99.90;;;;;;5069112;28;20133;-68
2022/06/19 00:22:05;;;;;;;14.15;2.40;;;14.50;99.90;;;;;;5067330;28;20135;-68
2022/06/19 00:24:31;;;;;;;16.65;3.53;;;14.50;99.90;;;;;;5082650;28;20036;-68
2022/06/19 00:26:58;;;;;;;15.20;2.47;;;14.50;99.90;;;;;;5053048;28;20055;-68
2022/06/19 00:29:23;;;;;;;14.68;3.17;;;14.50;99.90;;;;;;5084531;28;20044;-68
2022/06/19 00:31:49;;;;;;;12.13;1.98;;;14.50;99.90;;;;;;5070452;28;20093;-68
2022/06/19 00:34:15;;;;;;;15.68;3.13;;;14.40;99.90;;;;;;5067509;28;20112;-67
2022/06/19 00:36:40;;;;;;;9.27;2.55;;;14.50;99.90;;;;;;5083282;28;20124;-68
2022/06/19 00:39:06;;;;;;;17.40;3.83;;;14.50;99.90;;;;;;5082111;28;20040;-67
2022/06/19 00:41:39;;;;;;;10.55;1.98;;;14.40;99.90;;;;;;5064814;28;20040;-68
2022/06/19 00:44:08;;;;;;;15.00;1.98;;;14.40;99.90;;;;;;5064189;28;20062;-68
2022/06/19 00:46:46;;;;;;;14.52;2.30;;;14.50;99.90;;;;;;5063796;28;20130;-68
2022/06/19 00:49:28;;;;;;;16.50;2.33;;;14.40;99.90;;;;;;5068437;28;20166;-68
2022/06/19 00:52:29;;;;;;;11.15;2.75;;;14.40;99.90;;;;;;5081962;28;21039;-68
2022/06/19 00:55:06;;;;;;;14.25;2.40;;;14.40;99.90;;;;;;5082460;28;20048;-68
2022/06/19 00:57:36;;;;;;;14.55;2.22;;;14.40;99.90;;;;;;5080866;28;20108;-68
2022/06/19 01:00:12;;;;;;;15.73;2.53;;;14.40;99.90;;;;;;5087288;28;21495;-68
2022/06/19 01:02:40;;;;;;;14.45;2.80;;;14.40;99.90;;;;;;5085747;28;20039;-67
2022/06/19 01:05:06;;;;;;;9.35;1.73;;;14.40;99.90;;;;;;5070733;28;21022;-68
2022/06/19 01:07:32;;;;;;;12.05;2.60;;;14.40;99.90;;;;;;5066971;28;20071;-67
2022/06/19 01:09:57;;;;;;;15.80;1.95;;;14.40;99.90;;;;;;5086074;28;20115;-68
2022/06/19 01:12:25;;;;;;;12.15;1.75;;;14.40;99.90;;;;;;5084011;28;20118;-67
2022/06/19 01:14:59;;;;;;;16.67;2.17;;;14.40;99.90;;;;;;5070909;28;20040;-68
2022/06/19 01:17:25;;;;;;;12.10;2.00;;;14.40;99.90;;;;;;5082057;28;20513;-68
2022/06/19 01:19:51;;;;;;;9.32;2.17;;;14.50;99.90;;;;;;5083544;28;20032;-68
2022/06/19 01:22:30;;;;;;;9.60;1.88;;;14.50;99.90;;;;;;5078549;28;20056;-68
2022/06/19 01:24:56;;;;;;;8.75;1.20;;;14.70;99.90;;;;;;5068768;28;20054;-68
2022/06/19 01:30:08;;;;;;;11.52;1.83;;;14.50;99.90;;;;;;5080300;28;20055;-68
2022/06/19 01:32:36;;;;;;;6.15;1.05;;;14.50;99.90;;;;;;5082314;28;20039;-68
2022/06/19 01:35:03;;;;;;;10.13;1.33;;;14.60;99.90;;;;;;5084844;28;20041;-68
2022/06/19 01:37:30;;;;;;;8.45;1.58;;;14.60;99.90;;;;;;5080842;28;20051;-68
2022/06/19 01:40:03;;;;;;;7.85;1.52;;;14.60;99.90;;;;;;5085621;28;20028;-68
2022/06/19 01:42:30;;;;;;;10.32;1.30;;;14.70;99.90;;;;;;5085565;28;20140;-68
2022/06/19 01:44:57;;;;;;;8.48;1.73;;;14.60;99.90;;;;;;5068786;28;20036;-68
2022/06/19 01:47:23;;;;;;;9.90;1.48;;;14.70;99.90;;;;;;5067072;28;20758;-68
2022/06/19 01:49:52;;;;;;;7.85;1.20;;;14.60;99.90;;;;;;5066891;28;20036;-68
2022/06/19 01:52:18;;;;;;;10.05;1.67;;;14.60;99.90;;;;;;5084257;28;20390;-68
2022/06/19 01:54:50;;;;;;;10.02;1.65;;;14.50;99.90;;;;;;5063993;28;20051;-68
2022/06/19 01:57:17;;;;;;;10.27;1.45;;;14.50;99.90;;;;;;5068021;28;20052;-68
2022/06/19 01:59:45;;;;;;;8.95;1.75;;;14.50;99.90;;;;;;5082602;28;20032;-68
2022/06/19 02:02:13;;;;;;;15.05;2.63;;;14.50;99.90;;;;;;5080708;28;20097;-68
2022/06/19 02:04:40;;;;;;;9.93;1.77;;;14.40;99.90;;;;;;5083718;28;20549;-68
2022/06/19 02:07:08;;;;;;;15.27;1.77;;;14.40;99.90;;;;;;5081196;28;20058;-68
2022/06/19 02:09:34;;;;;;;14.60;3.00;;;14.40;99.90;;;;;;5067370;28;20100;-68
2022/06/19 02:12:01;;;;;;;10.80;1.95;;;14.50;99.90;;;;;;5070383;28;20040;-68
2022/06/19 02:14:28;;;;;;;14.82;2.50;;;14.40;99.90;;;;;;5063877;28;20059;-68
2022/06/19 02:16:54;;;;;;;14.93;3.90;;;14.40;99.90;;;;;;5064236;28;20047;-68
2022/06/19 02:19:20;;;;;;;16.40;2.33;;;14.40;99.90;;;;;;5066159;28;20039;-68
2022/06/19 02:21:49;;;;;;;15.23;2.13;;;14.40;99.90;;;;;;5080982;28;20039;-68
2022/06/19 02:24:19;;;;;;;17.92;3.22;;;14.40;99.90;;;;;;5080048;28;20032;-68
2022/06/19 02:26:47;;;;;;;11.45;2.05;;;14.30;99.90;;;;;;5083629;28;20058;-67
2022/06/19 02:29:16;;;;;;;10.55;2.22;;;14.40;99.90;;;;;;5081349;28;20040;-68
2022/06/19 02:31:51;;;;;;;16.05;1.90;;;14.30;99.90;;;;;;5082304;28;20927;-67
2022/06/19 02:34:37;;;;;;;13.05;1.98;;;14.40;99.90;;;;;;5077841;28;20074;-68
2022/06/19 02:37:14;;;;;;;14.10;1.77;;;14.40;99.90;;;;;;5081380;28;20036;-68
2022/06/19 02:39:43;;;;;;;13.98;3.55;;;14.40;99.90;;;;;;5078472;28;20592;-68
2022/06/19 02:42:22;;;;;;;13.88;2.10;;;14.50;99.90;;;;;;5082197;28;20561;-68
2022/06/19 02:44:51;;;;;;;13.23;2.17;;;14.50;99.90;;;;;;5061783;28;20234;-68
2022/06/19 02:47:17;;;;;;;13.73;1.60;;;14.80;99.90;;;;;;5078866;28;20547;-68
2022/06/19 02:49:43;;;;;;;11.07;1.73;;;14.50;99.90;;;;;;5082809;28;20032;-68
2022/06/19 02:52:10;;;;;;;18.23;3.47;;;14.50;99.90;;;;;;5079871;28;20115;-68
2022/06/19 02:54:36;;;;;;;12.40;2.13;;;14.50;99.90;;;;;;5065401;28;20044;-67
2022/06/19 02:57:03;;;;;;;11.32;1.70;;;14.50;99.90;;;;;;5066285;28;20933;-67
2022/06/19 02:59:29;;;;;;;13.15;2.20;;;14.50;99.90;;;;;;5076074;28;20059;-68
2022/06/19 03:01:54;;;;;;;15.00;2.17;;;15.00;99.90;;;;;;5063672;28;20047;-68
2022/06/19 03:04:34;;;;;;;17.27;2.53;;;14.60;99.90;;;;;;5082716;28;20110;-68
2022/06/19 03:07:00;;;;;;;14.02;2.22;;;14.50;99.90;;;;;;5077563;28;20044;-68
2022/06/19 03:09:26;;;;;;;14.45;2.50;;;14.50;99.90;;;;;;5081843;28;20948;-68
2022/06/19 03:11:51;;;;;;;14.60;3.47;;;14.50;99.90;;;;;;5082471;28;20040;-68
2022/06/19 03:14:17;;;;;;;11.90;1.83;;;14.50;99.90;;;;;;5080740;28;20040;-68
2022/06/19 03:16:45;;;;;;;17.98;3.40;;;14.50;99.90;;;;;;5080118;28;20487;-68
2022/06/19 03:19:11;;;;;;;15.93;2.20;;;14.40;99.90;;;;;;5064988;28;20040;-68
2022/06/19 03:21:37;;;;;;;14.07;2.13;;;14.40;99.90;;;;;;5081300;28;20909;-68
2022/06/19 03:24:03;;;;;;;16.77;2.33;;;14.40;99.90;;;;;;5083617;28;20055;-68
2022/06/19 03:26:28;;;;;;;13.10;1.95;;;14.40;99.90;;;;;;5064875;28;20049;-68
2022/06/19 03:28:54;;;;;;;18.08;2.45;;;14.30;99.90;;;;;;5062775;28;20058;-68
2022/06/19 03:31:23;;;;;;;14.15;2.33;;;14.30;99.90;;;;;;5081325;28;20124;-68
2022/06/19 03:33:49;;;;;;;14.88;2.83;;;14.30;99.90;;;;;;5063154;28;20420;-68
2022/06/19 03:36:16;;;;;;;16.30;2.42;;;14.20;99.90;;;;;;5062002;28;20493;-68
2022/06/19 03:38:41;;;;;;;12.48;2.35;;;14.30;99.90;;;;;;5065475;28;20055;-68
2022/06/19 03:41:08;;;;;;;11.80;1.80;;;14.30;99.90;;;;;;5062265;28;21107;-68
2022/06/19 03:43:36;;;;;;;13.43;2.40;;;14.30;99.90;;;;;;5083366;28;20043;-68
2022/06/19 03:46:12;;;;;;;9.38;1.73;;;14.20;99.90;;;;;;5062458;28;20085;-68
2022/06/19 03:48:39;;;;;;;13.57;2.25;;;14.20;99.90;;;;;;5061032;28;20079;-68
2022/06/19 03:51:05;;;;;;;14.65;2.45;;;14.10;99.90;;;;;;5063835;28;20157;-67
2022/06/19 03:53:31;;;;;;;14.50;2.40;;;14.10;99.90;;;;;;5065745;28;20032;-68
2022/06/19 03:55:57;;;;;;;13.65;2.95;;;14.10;99.90;;;;;;5083257;28;20800;-68
2022/06/19 03:58:23;;;;;;;13.18;3.08;;;13.90;99.90;;;;;;5079613;28;20040;-68
2022/06/19 04:00:48;;;;;;;14.88;2.78;;;13.90;99.90;;;;;;5082125;28;20036;-68
2022/06/19 04:03:14;;;;;;;14.63;2.10;;;13.90;99.90;;;;;;5081750;28;20047;-68
2022/06/19 04:05:40;;;;;;;12.40;1.58;;;14.00;99.90;;;;;;5083107;28;20054;-68
2022/06/19 04:08:06;;;;;;;8.27;1.65;;;13.90;99.90;;;;;;5082211;28;20113;-68
2022/06/19 04:10:31;;;;;;;12.00;1.98;;;14.00;99.90;;;;;;5044947;28;20071;-68
2022/06/19 04:12:57;;;;;;;17.10;2.80;;;14.00;99.90;;;;;;5066898;28;20044;-68
2022/06/19 04:15:24;;;;;;;17.95;3.42;;;13.90;99.90;;;;;;5081116;28;20047;-68
2022/06/19 04:17:50;;;;;;;16.25;2.13;;;14.00;99.90;;;;;;5068432;28;20040;-68
2022/06/19 04:20:15;;;;;;;14.15;1.60;;;13.80;99.90;;;;;;5084630;28;20176;-68
2022/06/19 04:22:41;;;;;;;10.82;1.77;;;13.80;99.90;;;;;;5085425;28;20082;-68
2022/06/19 04:25:13;;;;;;;14.88;1.73;;;13.80;99.90;;;;;;5082508;28;20067;-68
2022/06/19 04:27:39;;;;;;;17.13;2.83;;;13.80;99.90;;;;;;5070867;28;20414;-67
2022/06/19 04:30:06;;;;;;;15.82;2.83;;;13.80;99.90;;;;;;5083673;28;20089;-68
2022/06/19 04:32:31;;;;;;;16.73;2.42;;;13.80;99.90;;;;;;5084602;28;20040;-68
2022/06/19 04:34:57;;;;;;;10.77;2.95;;;13.80;99.90;;;;;;5063371;28;20101;-68
2022/06/19 04:37:22;;;;;;;15.13;2.30;;;13.80;99.90;;;;;;5085394;28;20043;-68
2022/06/19 04:39:48;;;;;;;14.02;2.03;;;13.80;99.90;;;;;;5065869;28;20055;-68
2022/06/19 04:42:13;;;;;;;10.02;1.75;;;13.80;99.90;;;;;;5068851;28;20054;-67
2022/06/19 04:44:39;;;;;;;14.20;2.45;;;13.90;99.90;;;;;;5070291;28;20104;-67
2022/06/19 04:47:05;;;;;;;14.18;2.17;;;13.90;99.90;;;;;;5060812;28;20044;-68
2022/06/19 04:49:30;;;;;;;11.75;1.83;;;13.90;99.90;;;;;;5061607;28;20051;-67
2022/06/19 04:51:56;;;;;;;15.15;2.70;;;14.00;99.90;;;;;;5081464;28;20048;-67
2022/06/19 04:54:22;;;;;;;14.90;2.65;;;14.10;99.90;;;;;;5065797;28;20035;-67
2022/06/19 04:56:47;;;;;;;7.75;1.75;;;14.10;99.90;;;;;;5062207;28;20392;-68
2022/06/19 04:59:13;;;;;;;11.55;1.95;;;14.20;99.90;;;;;;5067799;28;20131;-68
2022/06/19 05:01:39;;;;;;;12.07;2.47;;;14.30;99.90;;;;;;5067283;28;20045;-68
2022/06/19 05:04:11;;;;;;;10.13;1.77;;;14.70;99.90;;;;;;5080639;28;20050;-68
2022/06/19 05:06:37;;;;;;;14.43;1.80;;;14.40;99.90;;;;;;5064293;28;20054;-68
2022/06/19 05:09:03;;;;;;;11.88;2.15;;;14.40;99.90;;;;;;5082163;28;20031;-68
2022/06/19 05:11:31;;;;;;;11.05;1.65;;;14.50;99.90;;;;;;5065336;28;20051;-68
2022/06/19 05:13:57;;;;;;;13.70;1.95;;;14.40;99.90;;;;;;5082981;28;20089;-68
2022/06/19 05:16:24;;;;;;;10.38;1.98;;;14.40;99.90;;;;;;5066531;28;20044;-68
2022/06/19 05:18:53;;;;;;;11.82;2.15;;;14.40;99.90;;;;;;5081096;28;20463;-68
2022/06/19 05:21:19;;;;;;;17.17;2.80;;;14.30;99.90;;;;;;5061832;28;20048;-68
2022/06/19 05:23:47;;;;;;;13.85;2.20;;;14.20;99.90;;;;;;5064435;28;20040;-68
2022/06/19 05:26:16;;;;;;;11.30;2.40;;;14.10;99.90;;;;;;5080672;28;20042;-67
2022/06/19 05:28:43;;;;;;;12.30;1.88;;;14.10;99.90;;;;;;5062894;28;20093;-67
2022/06/19 05:31:09;;;;;;;12.98;2.50;;;14.10;99.90;;;;;;5084390;28;20063;-68
2022/06/19 05:33:34;;;;;;;10.15;1.77;;;14.10;99.90;;;;;;5064722;28;20657;-68
2022/06/19 05:36:00;;;;;;;9.95;2.42;;;14.10;99.90;;;;;;5077897;28;20043;-68
2022/06/19 05:38:27;;;;;;;8.98;1.52;;;14.10;99.90;;;;;;5063651;28;20055;-68
2022/06/19 05:40:54;;;;;;;10.85;1.67;;;14.00;99.90;;;;;;5065515;28;20048;-68
2022/06/19 05:43:21;;;;;;;8.50;2.13;;;13.90;99.90;;;;;;5066332;28;20040;-68
2022/06/19 05:46:11;;;;;;;6.15;1.00;;;13.80;99.90;;;;;;5079568;28;20032;-68
2022/06/19 05:48:37;;;;;;;10.63;1.35;;;13.80;99.90;;;;;;5078084;28;20032;-68
2022/06/19 05:51:09;;;;;;;6.60;1.35;;;13.70;99.90;;;;;;5046207;28;20032;-68
2022/06/19 05:53:44;;;;;;;7.43;1.65;;;13.60;99.90;;;;;;5081214;28;20068;-67
2022/06/19 05:56:11;;;;;;;7.18;1.30;;;13.60;99.90;;;;;;5064840;28;20043;-68
2022/06/19 05:58:36;;;;;;;6.78;1.00;;;13.60;99.90;;;;;;5078683;28;20046;-67
2022/06/19 06:01:03;;;;;;;9.40;1.50;;;13.60;99.90;;;;;;5081563;28;20036;-67
2022/06/19 06:03:29;;;;;;;6.00;1.02;;;13.70;99.90;;;;;;5083166;28;20044;-67
2022/06/19 06:06:05;;;;;;;9.73;2.13;;;13.70;99.90;;;;;;5067753;28;20063;-67
2022/06/19 06:08:34;;;;;;;4.57;0.80;;;13.70;99.90;;;;;;5065732;28;20043;-67
2022/06/19 06:10:59;;;;;;;4.53;0.80;;;13.70;99.90;;;;;;5077184;28;20039;-67
2022/06/19 06:13:25;;;;;;;7.25;1.35;;;13.70;99.90;;;;;;5078318;28;20044;-67
2022/06/19 06:15:51;;;;;;;9.75;1.00;;;13.70;99.90;;;;;;5079210;28;20559;-67
2022/06/19 06:18:17;;;;;;;7.10;1.23;;;13.80;99.90;;;;;;5041109;28;20074;-67
2022/06/19 06:20:43;;;;;;;7.80;1.05;;;13.70;99.90;;;;;;5061346;28;20518;-67
2022/06/19 06:23:09;;;;;;;7.00;0.90;;;13.80;99.90;;;;;;5060897;28;20044;-68
2022/06/19 06:25:40;;;;;;;9.45;1.40;;;13.70;99.90;;;;;;5060763;28;20036;-67
2022/06/19 06:28:06;;;;;;;8.98;1.15;;;13.80;99.90;;;;;;5059964;28;20043;-67
2022/06/19 06:30:31;;;;;;;7.95;1.52;;;13.80;99.90;;;;;;5083224;28;20478;-68
2022/06/19 06:32:57;;;;;;;7.82;1.52;;;13.80;99.90;;;;;;5060971;28;20406;-68
2022/06/19 06:35:22;;;;;;;9.48;1.92;;;13.70;99.90;;;;;;5061030;28;20044;-67
2022/06/19 06:37:48;;;;;;;7.43;1.48;;;13.70;99.90;;;;;;5075158;28;20040;-67
2022/06/19 06:40:14;;;;;;;12.02;1.83;;;13.60;99.90;;;;;;5061193;28;20044;-68
2022/06/19 06:42:39;;;;;;;9.68;1.55;;;13.70;99.90;;;;;;5060287;28;20051;-68
2022/06/19 06:45:07;;;;;;;10.35;1.58;;;13.50;99.90;;;;;;5061164;28;20401;-67
2022/06/19 06:47:32;;;;;;;9.32;1.45;;;13.60;99.90;;;;;;5058041;28;20554;-67
2022/06/19 06:49:58;;;;;;;17.55;2.38;;;13.70;99.90;;;;;;5059502;28;20040;-67
2022/06/19 06:52:24;;;;;;;10.20;1.75;;;13.80;99.90;;;;;;5058490;28;20475;-68
2022/06/19 06:54:49;;;;;;;13.38;1.83;;;13.80;99.90;;;;;;5078349;28;20065;-68
2022/06/19 06:57:15;;;;;;;18.50;2.35;;;13.80;99.90;;;;;;5078536;28;20028;-68
2022/06/19 06:59:40;;;;;;;14.25;2.22;;;13.80;99.90;;;;;;5078896;28;20039;-67
2022/06/19 07:02:06;;;;;;;12.25;1.65;;;13.90;99.90;;;;;;5062476;28;20044;-67
2022/06/19 07:04:32;;;;;;;12.90;2.17;;;13.80;99.90;;;;;;5079973;28;20394;-67
2022/06/19 07:06:57;;;;;;;15.80;2.83;;;13.90;99.90;;;;;;5062485;28;20402;-68
2022/06/19 07:09:23;;;;;;;13.55;1.95;;;13.90;99.90;;;;;;5078621;28;20047;-67
2022/06/19 07:11:49;;;;;;;12.65;1.88;;;13.80;99.90;;;;;;5059882;28;20401;-68
2022/06/19 07:14:17;;;;;;;12.88;1.92;;;13.80;99.90;;;;;;5077923;28;20048;-68
2022/06/19 07:16:43;;;;;;;16.77;2.67;;;13.80;99.90;;;;;;5069893;28;20048;-67
2022/06/19 07:19:09;;;;;;;15.23;2.30;;;13.80;99.90;;;;;;5072319;28;20446;-67
2022/06/19 07:21:36;;;;;;;10.75;2.50;;;13.80;99.90;;;;;;5072024;28;20048;-67
2022/06/19 07:24:02;;;;;;;12.45;2.17;;;13.80;99.90;;;;;;5060434;28;20382;-68
2022/06/19 07:26:29;;;;;;;14.60;2.53;;;13.80;99.90;;;;;;5056827;28;20081;-67
2022/06/19 07:28:55;;;;;;;13.63;2.00;;;13.80;99.90;;;;;;5059697;28;20145;-67
2022/06/19 07:31:21;;;;;;;15.82;2.45;;;13.90;99.90;;;;;;5061339;28;20056;-67
2022/06/19 07:33:46;;;;;;;12.52;2.33;;;13.90;99.90;;;;;;5087063;28;21717;-67
2022/06/19 07:36:16;;;;;;;12.60;2.15;;;13.90;99.90;;;;;;5067683;28;20132;-67
2022/06/19 07:38:42;;;;;;;19.27;2.55;;;14.00;99.90;;;;;;5061651;28;21793;-67
2022/06/19 07:41:08;;;;;;;18.45;2.50;;;14.00;99.90;;;;;;5064078;28;20112;-68
2022/06/19 07:43:34;;;;;;;18.38;2.75;;;14.10;99.90;;;;;;5079681;28;20126;-67
2022/06/19 07:45:59;;;;;;;13.75;1.88;;;14.30;99.90;;;;;;5078919;28;20499;-67
2022/06/19 07:51:10;;;;;;;16.95;2.45;;;14.20;99.90;;;;;;5083646;28;20040;-67
2022/06/19 07:53:35;;;;;;;9.65;1.88;;;14.20;99.90;;;;;;5082485;28;20124;-68
2022/06/19 07:56:01;;;;;;;10.63;2.58;;;14.30;99.90;;;;;;5061631;28;20659;-68
2022/06/19 07:58:27;;;;;;;12.43;2.22;;;14.30;99.90;;;;;;5067890;28;20054;-67
2022/06/19 08:00:53;;;;;;;17.92;3.30;;;14.20;99.90;;;;;;5064434;28;20039;-67
2022/06/19 08:03:18;;;;;;;11.10;1.65;;;14.30;99.90;;;;;;5063855;28;20058;-68
2022/06/19 08:05:46;;;;;;;12.95;1.70;;;14.20;99.90;;;;;;5061253;28;20409;-68
2022/06/19 08:08:24;;;;;;;11.02;2.45;;;14.20;99.90;;;;;;5080821;28;20044;-67
2022/06/19 08:10:51;;;;;;;13.07;2.35;;;14.20;99.90;;;;;;5083716;28;20098;-67
2022/06/19 08:13:22;;;;;;;9.57;1.80;;;14.30;99.90;;;;;;5060688;28;21804;-68
2022/06/19 08:15:49;;;;;;;15.13;2.10;;;14.40;99.90;;;;;;5081120;28;20055;-68
2022/06/19 08:18:15;;;;;;;14.70;1.70;;;14.50;99.90;;;;;;5078137;28;20028;-68
2022/06/19 08:20:41;;;;;;;8.18;2.00;;;14.50;99.90;;;;;;5062940;28;20164;-67
2022/06/19 08:23:06;;;;;;;11.98;2.00;;;14.70;99.90;;;;;;5064021;28;20044;-67
2022/06/19 08:25:32;;;;;;;15.23;2.17;;;14.80;99.90;;;;;;5080877;28;20482;-68
2022/06/19 08:27:58;;;;;;;16.35;2.45;;;14.80;99.90;;;;;;5060281;28;20116;-66
2022/06/19 08:30:27;;;;;;;12.68;2.33;;;14.90;99.90;;;;;;5063534;28;20059;-68
2022/06/19 08:32:54;;;;;;;14.32;2.28;;;15.00;99.90;;;;;;5079879;28;20657;-68
2022/06/19 08:35:20;;;;;;;9.18;1.95;;;15.00;99.90;;;;;;5081946;28;20126;-67
2022/06/19 08:37:49;;;;;;;14.00;2.00;;;15.10;99.90;;;;;;5081335;28;20046;-68
2022/06/19 08:40:51;;;;;;;12.38;2.30;;;15.20;99.90;;;;;;5066225;28;20040;-68
2022/06/19 08:43:29;;;;;;;14.13;1.90;;;15.20;99.90;;;;;;4995636;28;20055;-68
2022/06/19 08:46:32;;;;;;;14.48;2.90;;;15.30;99.90;;;;;;5084031;28;20051;-68
2022/06/19 08:49:13;;;;;;;11.95;1.85;;;15.30;99.90;;;;;;5081715;28;20049;-67
2022/06/19 08:51:47;;;;;;;8.23;1.90;;;15.30;99.90;;;;;;5064115;28;20048;-67
2022/06/19 08:54:39;;;;;;;12.52;1.98;;;15.30;99.90;;;;;;5065099;28;20088;-68
2022/06/19 08:57:19;;;;;;;8.65;1.52;;;15.30;99.90;;;;;;5083510;28;20056;-67
2022/06/19 09:00:00;;;;;;;9.00;1.50;;;15.40;99.90;;;;;;5064490;28;20048;-68
2022/06/19 09:02:34;;;;;;;11.70;1.88;;;15.40;99.90;;;;;;5064990;28;20049;-67
2022/06/19 09:05:38;;;;;;;11.43;1.80;;;15.40;99.90;;;;;;5077250;28;20096;-68
2022/06/19 09:08:37;;;;;;;15.40;1.65;;;15.50;99.90;;;;;;5061532;28;20056;-68
2022/06/19 09:11:28;;;;;;;13.77;1.95;;;15.50;99.90;;;;;;5077896;28;20055;-68
2022/06/19 09:14:06;;;;;;;10.48;2.20;;;15.50;99.90;;;;;;5079238;28;20490;-68
2022/06/19 09:16:39;;;;;;;9.88;1.73;;;15.50;99.90;;;;;;5060668;28;20036;-68
2022/06/19 09:19:16;;;;;;;8.10;1.88;;;15.50;99.90;;;;;;5068490;28;20041;-67
2022/06/19 09:21:53;;;;;;;14.25;2.05;;;15.50;99.90;;;;;;5081004;28;20062;-67
2022/06/19 09:24:24;;;;;;;8.63;1.55;;;15.60;99.90;;;;;;5081969;28;20494;-67
2022/06/19 09:26:56;;;;;;;10.25;2.00;;;15.60;99.90;;;;;;5086816;28;20455;-68
2022/06/19 09:29:37;;;;;;;8.70;1.77;;;15.70;99.90;;;;;;5066778;28;20066;-67
2022/06/19 09:32:11;;;;;;;8.05;1.38;;;15.70;99.90;;;;;;5085376;28;20100;-67
2022/06/19 09:34:46;;;;;;;11.23;1.83;;;15.70;99.90;;;;;;5065624;28;20089;-68
2022/06/19 09:37:38;;;;;;;7.80;1.38;;;15.70;99.90;;;;;;5069099;28;20197;-68
2022/06/19 09:40:21;;;;;;;10.95;1.83;;;15.80;99.90;;;;;;5067515;28;20087;-67
2022/06/19 09:43:00;;;;;;;6.28;1.23;;;15.80;99.90;;;;;;5067067;28;20047;-67
2022/06/19 09:45:39;;;;;;;6.85;1.75;;;15.80;99.90;;;;;;5080907;28;20153;-67
2022/06/19 09:48:33;;;;;;;8.80;1.70;;;15.80;99.90;;;;;;5079326;28;20366;-67
2022/06/19 09:51:12;;;;;;;7.78;1.70;;;15.90;99.90;;;;;;5061233;28;20482;-67
2022/06/19 09:53:50;;;;;;;4.20;1.08;;;16.00;99.90;;;;;;5066314;28;20047;-67
2022/06/19 09:56:25;;;;;;;7.13;1.23;;;16.10;99.90;;;;;;5064999;28;20043;-67
2022/06/19 09:58:54;;;;;;;;;;;16.30;99.90;;;;;;5068529;28;20040;-67
2022/06/19 10:01:21;;;;;;;7.60;1.75;;;16.50;99.90;;;;;;5082482;28;19959;-67
2022/06/19 10:04:03;;;;;;;7.93;1.23;;;16.60;99.90;;;;;;5081353;28;20582;-68
2022/06/19 10:06:35;;;;;;;9.68;1.27;;;16.70;99.90;;;;;;5063078;28;20073;-67
2022/06/19 10:09:27;;;;;;;6.30;1.50;;;16.70;99.90;;;;;;5083804;28;20044;-67
2022/06/19 10:11:56;;;;;;;7.38;0.73;;;16.70;99.90;;;;;;5078115;28;20040;-67
2022/06/19 10:14:28;;;;;;;5.32;0.93;;;16.70;99.90;;;;;;5078915;28;20044;-67
2022/06/19 10:17:09;;;;;;;7.13;1.40;;;16.80;99.90;;;;;;5080813;28;20039;-67
2022/06/19 10:19:43;;;;;;;7.93;1.10;;;16.90;99.90;;;;;;5084064;28;20120;-68
2022/06/19 10:22:33;;;;;;;6.97;1.10;;;16.90;99.90;;;;;;5067171;28;20089;-68
2022/06/19 10:25:08;;;;;;;5.10;1.35;;;16.90;99.90;;;;;;5083344;28;20051;-67
2022/06/19 10:27:54;;;;;;;10.27;2.15;;;16.70;99.90;;;;;;5069816;28;20044;-68
2022/06/19 10:30:29;;;;;;;6.82;1.00;;;16.80;99.90;;;;;;5082715;28;20059;-67
2022/06/19 10:33:01;;;;;;;5.22;1.15;;;16.80;99.90;;;;;;5067899;28;20044;-68
2022/06/19 10:35:57;;;;;;;9.35;1.17;;;16.80;99.90;;;;;;5081616;28;20085;-67
2022/06/19 10:39:12;;;;;;;7.50;1.42;;;16.70;99.90;;;;;;5079928;28;20486;-67
2022/06/19 10:42:01;;;;;;;8.93;1.13;;;16.70;99.90;;;;;;5080278;28;20525;-67
2022/06/19 10:44:45;;;;;;;9.27;1.20;;;16.90;99.90;;;;;;5080750;28;20048;-68
2022/06/19 10:47:25;;;;;;;6.53;1.30;;;16.90;99.90;;;;;;5065264;28;20120;-67
2022/06/19 10:50:14;;;;;;;8.73;1.00;;;16.80;99.90;;;;;;5078435;28;20074;-68
2022/06/19 10:52:55;;;;;;;7.47;1.30;;;16.90;99.90;;;;;;5055783;28;20062;-68
2022/06/19 10:55:27;;;;;;;8.60;1.05;;;16.90;99.90;;;;;;5081829;28;20475;-67
2022/06/19 10:58:19;;;;;;;5.03;0.77;;;16.90;99.90;;;;;;5063577;28;20104;-67
2022/06/19 11:00:50;;;;;;;4.30;0.50;;;16.90;99.90;;;;;;5051346;28;20044;-68
2022/06/19 11:06:13;;;;;;;5.50;0.80;;;17.10;99.90;;;;;;5067871;28;20048;-67
2022/06/19 11:08:43;;;;;;;8.55;0.88;;;17.10;99.90;;;;;;5047551;28;20044;-68
2022/06/19 11:11:15;;;;;;;4.53;0.73;;;17.00;99.90;;;;;;5080459;28;20036;-67
2022/06/19 11:14:07;;;;;;;7.55;1.60;;;16.90;99.90;;;;;;5081142;28;20131;-68
2022/06/19 11:16:50;;;;;;;9.00;0.85;;;16.90;99.90;;;;;;5083174;28;20047;-67
2022/06/19 11:19:36;;;;;;;7.30;0.90;;;16.80;99.90;;;;;;5067321;28;20131;-67
2022/06/19 11:22:05;;;;;;;4.63;0.50;;;16.70;99.90;;;;;;5080352;28;20044;-67
2022/06/19 11:24:41;;;;;;;6.32;0.98;;;16.60;99.90;;;;;;5067663;28;20040;-67
2022/06/19 11:27:16;;;;;;;5.65;0.75;;;16.50;99.90;;;;;;5081871;28;20036;-67
2022/06/19 11:29:45;;;;;;;6.10;0.82;;;16.40;99.90;;;;;;5066368;28;20043;-67
2022/06/19 11:32:20;;;;;;;6.10;0.80;;;16.30;99.90;;;;;;5080883;28;20048;-67
2022/06/19 11:35:05;;;;;;;5.95;1.05;;;16.20;99.90;;;;;;5061087;28;20048;-67
2022/06/19 11:37:47;;;;;;;3.90;0.90;;;16.10;99.90;;;;;;5065804;28;20036;-67
2022/06/19 11:40:20;;;;;;;6.50;1.35;;;16.20;99.90;;;;;;5062797;28;20067;-67
2022/06/19 11:42:49;;;;;;;6.07;1.10;;;16.20;99.90;;;;;;5081358;28;20082;-68
2022/06/19 11:45:15;;;;;;;4.72;0.63;;;16.30;99.90;;;;;;5079490;28;20401;-67
2022/06/19 11:47:44;;;;;;;4.43;0.60;;;16.30;99.90;;;;;;5077974;28;20046;-67
2022/06/19 11:50:15;;;;;;;6.03;0.88;;;16.30;99.90;;;;;;5079037;28;20077;-67
2022/06/19 11:52:46;;;;;;;4.70;0.85;;;16.30;99.90;;;;;;5063142;28;20047;-67
2022/06/19 11:55:27;;;;;;;6.97;0.60;;;16.40;99.90;;;;;;5062814;28;20047;-67
2022/06/19 11:58:12;;;;;;;6.82;1.05;;;16.40;99.90;;;;;;5080424;28;20098;-68
2022/06/19 12:00:40;;;;;;;6.88;1.17;;;16.30;99.90;;;;;;5078099;28;20174;-68
2022/06/19 12:03:36;;;;;;;4.35;1.02;;;16.40;99.90;;;;;;5080608;28;20040;-68
2022/06/19 12:06:08;;;;;;;3.63;0.50;;;16.40;99.90;;;;;;5078813;28;20032;-68
2022/06/19 12:08:41;;;;;;;4.40;0.77;;;16.50;99.90;;;;;;5071867;28;20040;-68
2022/06/19 12:11:08;;;;;;;5.53;0.60;;;16.50;99.90;;;;;;5079167;28;21077;-68
2022/06/19 12:13:42;;;;;;;6.60;0.47;;;16.60;99.90;;;;;;5063323;28;20051;-68
2022/06/19 12:16:21;;;;;;;4.22;0.77;;;16.70;99.90;;;;;;5081854;28;20069;-68
2022/06/19 12:18:48;;;;;;;3.30;0.60;;;16.80;99.90;;;;;;5079867;28;20066;-68
2022/06/19 12:21:35;;;;;;;3.25;0.55;;;16.90;99.90;;;;;;5064635;28;20055;-68
2022/06/19 12:24:15;;;;;;;3.90;0.50;;;17.10;99.90;;;;;;5081606;28;20036;-68
2022/06/19 12:26:48;;;;;;;4.50;0.77;;;17.40;99.90;;;;;;5082559;28;20047;-68
2022/06/19 12:29:27;;;;;;;5.75;1.20;;;17.60;99.90;;;;;;5063955;28;20578;-68
2022/06/19 12:31:56;;;;;;;5.95;0.63;;;17.90;99.90;;;;;;5082464;28;20040;-68
2022/06/19 12:34:36;;;;;;;4.47;1.00;;;18.00;99.90;;;;;;5065193;28;20478;-68
2022/06/19 12:37:02;;;;;;;2.58;0.38;;;17.90;99.90;;;;;;5083591;28;20036;-70
2022/06/19 12:39:31;;;;;;;6.82;1.05;;;17.80;99.90;;;;;;5061482;28;20032;-69
2022/06/19 12:42:31;;;;;;;4.03;0.65;;;17.90;99.90;;;;;;5080444;28;20047;-69
2022/06/19 12:45:05;;;;;;;2.40;0.90;;;18.00;99.90;;;;;;5064222;28;20043;-69
2022/06/19 12:47:48;;;;;;;3.70;0.82;;;18.00;99.90;;;;;;5081963;28;20051;-68
2022/06/19 12:50:24;;;;;;;1.85;0.30;;;18.20;99.90;;;;;;5063837;28;20052;-67
2022/06/19 12:52:53;;;;;;;40.17;1.40;;;18.10;99.90;;;;;;5079772;28;20509;-67
2022/06/19 12:55:33;;;;;;;4.68;0.30;;;18.10;99.90;;;;;;5084977;28;20459;-68
2022/06/19 12:58:25;;;;;;;3.72;0.47;;;18.00;99.90;;;;;;5078450;28;20566;-68
2022/06/19 13:00:56;;;;;;;6.75;0.50;;;18.00;99.90;;;;;;5087257;28;20036;-68
2022/06/19 13:03:28;;;;;;;2.60;0.82;;;17.90;99.90;;;;;;5045843;28;20060;-68
2022/06/19 13:06:12;;;;;;;1.92;0.60;;;17.90;99.90;;;;;;5079272;28;20424;-68
2022/06/19 13:08:53;;;;;;;3.78;0.50;;;17.80;99.90;;;;;;5087360;28;20031;-68